Time;durP1;ratioP1;P1;durP2;ratioP2;P2;SDS_P1;SDS_P2;PMS_P1;PMS_P2;Temp;Humidity;BMP_temperature;BMP_pressure;BME280_temperature;BME280_humidity;BME280_pressure;Samples;Min_cycle;Max_cycle;Signal;HPM_P1;HPM_P2
2022/11/17 00:00:23;;;;;;;8.35;2.80;;;;;;;10.53;100.00;99033.13;5032370;28;20057;-63
2022/11/17 00:02:49;;;;;;;5.22;2.50;;;;;;;10.56;100.00;99030.91;5018774;28;20049;-63
2022/11/17 00:05:16;;;;;;;8.77;3.08;;;;;;;10.57;100.00;99016.03;5018225;28;20045;-64
2022/11/17 00:07:47;;;;;;;6.05;2.97;;;;;;;10.58;100.00;98997.44;5014479;28;20115;-63
2022/11/17 00:10:15;;;;;;;7.35;2.58;;;;;;;10.61;100.00;98986.59;5024748;28;20057;-63
2022/11/17 00:15:27;;;;;;;6.53;2.35;;;;;;;10.56;100.00;98990.78;5019472;28;20053;-63
2022/11/17 00:23:45;;;;;;;9.70;2.42;;;;;;;10.54;100.00;98958.72;5014313;28;20056;-62
2022/11/17 00:26:17;;;;;;;8.32;2.33;;;;;;;10.56;100.00;98949.66;5018269;28;20694;-63
2022/11/17 00:28:44;;;;;;;6.85;2.85;;;;;;;10.48;100.00;98950.59;5022312;28;20053;-63
2022/11/17 00:34:04;;;;;;;11.50;2.53;;;;;;;10.54;100.00;98924.63;5009421;28;20486;-63
2022/11/17 00:36:42;;;;;;;8.85;2.80;;;;;;;10.51;100.00;98920.59;5013029;28;20072;-63
2022/11/17 00:39:10;;;;;;;5.80;2.33;;;;;;;10.47;100.00;98920.16;5020547;28;20447;-63
2022/11/17 00:41:36;;;;;;;7.03;2.22;;;;;;;10.46;100.00;98908.03;5027178;28;20049;-64
2022/11/17 00:44:03;;;;;;;10.90;2.40;;;;;;;10.47;100.00;98896.56;5019050;28;20584;-63
2022/11/17 00:46:30;;;;;;;4.30;2.08;;;;;;;10.48;100.00;98889.50;5027234;28;20095;-63
2022/11/17 00:48:57;;;;;;;6.25;2.17;;;;;;;10.49;100.00;98888.53;5016666;28;20452;-63
2022/11/17 00:51:26;;;;;;;5.38;1.83;;;;;;;10.45;100.00;98890.72;5027533;28;20056;-63
2022/11/17 00:53:53;;;;;;;3.97;2.13;;;;;;;10.40;100.00;98882.59;5017285;28;20084;-62
2022/11/17 00:56:19;;;;;;;7.78;2.30;;;;;;;10.43;100.00;98861.25;5018025;28;20045;-63
2022/11/17 00:58:46;;;;;;;4.55;2.03;;;;;;;10.44;100.00;98862.06;5034839;28;20040;-62
2022/11/17 01:01:12;;;;;;;7.10;1.92;;;;;;;10.40;100.00;98852.97;5007538;28;20054;-62
2022/11/17 01:03:39;;;;;;;6.70;2.33;;;;;;;10.44;100.00;98846.34;5012730;28;20156;-62
2022/11/17 01:06:11;;;;;;;4.22;1.88;;;;;;;10.48;100.00;98824.78;5012253;28;20473;-61
2022/11/17 01:08:38;;;;;;;4.10;1.98;;;;;;;10.47;100.00;98810.06;5025081;28;20054;-63
2022/11/17 01:11:16;;;;;;;7.65;1.67;;;;;;;10.55;100.00;98818.78;5013538;28;20108;-63
2022/11/17 01:13:46;;;;;;;5.63;2.30;;;;;;;10.50;100.00;98827.22;5009384;28;20109;-62
2022/11/17 01:16:15;;;;;;;7.47;2.13;;;;;;;10.51;100.00;98814.94;5009761;28;20126;-61
2022/11/17 01:18:43;;;;;;;7.90;2.10;;;;;;;10.46;100.00;98807.63;5015691;28;20104;-62
2022/11/17 01:21:12;;;;;;;4.82;1.80;;;;;;;10.48;100.00;98789.91;5024771;28;20049;-63
2022/11/17 01:23:40;;;;;;;6.50;1.80;;;;;;;10.48;100.00;98792.53;5023293;28;20053;-62
2022/11/17 01:26:12;;;;;;;5.85;1.67;;;;;;;10.49;100.00;98779.22;5019246;28;20103;-62
2022/11/17 01:28:39;;;;;;;5.60;1.75;;;;;;;10.53;100.00;98750.00;5015232;28;20353;-63
2022/11/17 01:31:08;;;;;;;4.03;1.65;;;;;;;10.49;100.00;98763.50;5018701;28;20041;-62
2022/11/17 01:33:35;;;;;;;4.85;1.48;;;;;;;10.48;100.00;98759.25;5013000;28;20052;-63
2022/11/17 01:36:11;;;;;;;7.43;1.73;;;;;;;10.56;100.00;98746.97;5005640;28;20050;-63
2022/11/17 01:38:37;;;;;;;7.43;1.52;;;;;;;10.52;100.00;98743.94;5016191;28;20315;-62
2022/11/17 01:41:06;;;;;;;4.68;1.55;;;;;;;10.53;100.00;98737.72;5022590;28;20057;-63
2022/11/17 01:43:42;;;;;;;4.22;1.38;;;;;;;10.53;100.00;98745.56;5026382;28;20058;-63
2022/11/17 01:46:20;;;;;;;5.20;1.73;;;;;;;10.51;100.00;98742.34;5017041;28;20102;-63
2022/11/17 01:48:48;;;;;;;5.75;1.40;;;;;;;10.51;100.00;98738.91;5021251;28;20102;-63
2022/11/17 01:51:15;;;;;;;4.82;1.83;;;;;;;10.47;100.00;98747.16;5024356;28;20131;-63
2022/11/17 01:53:44;;;;;;;4.13;1.60;;;;;;;10.53;100.00;98737.72;5012236;28;20414;-61
2022/11/17 01:56:17;;;;;;;6.85;2.08;;;;;;;10.55;100.00;98725.22;5015907;28;20049;-61
2022/11/17 01:58:53;;;;;;;2.63;1.30;;;;;;;10.62;100.00;98746.19;5019277;28;21892;-62
2022/11/17 02:01:19;;;;;;;6.50;1.90;;;;;;;10.54;100.00;98736.69;5026996;28;20053;-63
2022/11/17 02:03:48;;;;;;;3.08;1.80;;;;;;;10.64;100.00;98713.53;5013579;28;20467;-62
2022/11/17 02:06:43;;;;;;;5.40;1.88;;;;;;;10.58;100.00;98698.59;5027223;28;20050;-62
2022/11/17 02:09:10;;;;;;;2.40;1.50;;;;;;;10.58;100.00;98703.81;5014021;28;20048;-63
2022/11/17 02:11:36;;;;;;;6.57;1.98;;;;;;;10.53;100.00;98687.09;5023613;28;20498;-62
2022/11/17 02:14:04;;;;;;;5.53;1.52;;;;;;;10.57;100.00;98696.19;5018806;28;20099;-63
2022/11/17 02:16:30;;;;;;;2.63;1.20;;;;;;;10.57;100.00;98711.91;5018000;28;20056;-63
2022/11/17 02:18:56;;;;;;;5.03;1.83;;;;;;;10.65;100.00;98698.63;5020177;28;20053;-62
2022/11/17 02:22:02;;;;;;;6.30;1.45;;;;;;;10.71;100.00;98699.63;5014112;28;20061;-63
2022/11/17 02:24:50;;;;;;;3.20;1.35;;;;;;;10.73;100.00;98695.00;5016684;28;20068;-63
2022/11/17 02:27:54;;;;;;;2.03;1.00;;;;;;;10.80;100.00;98695.78;5021361;28;20091;-63
2022/11/17 02:30:22;;;;;;;4.95;1.73;;;;;;;10.72;100.00;98691.53;5023625;28;20333;-63
2022/11/17 02:33:10;;;;;;;2.53;1.40;;;;;;;10.72;100.00;98691.53;5014531;28;20073;-63
2022/11/17 02:35:54;;;;;;;;;;;;;;;10.75;100.00;98687.75;5017066;28;20485;-63
2022/11/17 02:38:41;;;;;;;4.63;1.38;;;;;;;10.77;100.00;98693.59;5014651;28;20429;-62
2022/11/17 02:41:16;;;;;;;2.10;1.10;;;;;;;10.77;100.00;98696.22;5016834;28;20069;-64
2022/11/17 02:44:05;;;;;;;4.10;1.55;;;;;;;10.77;100.00;98691.78;5012422;28;20096;-62
2022/11/17 02:46:45;;;;;;;5.05;1.10;;;;;;;10.75;100.00;98698.22;5016639;28;20046;-63
2022/11/17 02:49:18;;;;;;;3.67;1.20;;;;;;;10.77;100.00;98699.63;5022961;28;20499;-63
2022/11/17 02:51:49;;;;;;;5.50;1.23;;;;;;;10.78;100.00;98700.44;5020928;28;20107;-63
2022/11/17 02:54:17;;;;;;;4.72;1.15;;;;;;;10.81;100.00;98698.22;5013602;28;20050;-62
2022/11/17 02:56:43;;;;;;;3.30;1.27;;;;;;;10.81;100.00;98685.13;5017374;28;20765;-63
2022/11/17 02:59:14;;;;;;;4.28;1.20;;;;;;;10.77;100.00;98678.66;5032494;28;20052;-63
2022/11/17 03:02:15;;;;;;;2.72;1.27;;;;;;;10.82;100.00;98662.31;5019729;28;20057;-63
2022/11/17 03:05:07;;;;;;;4.43;1.40;;;;;;;10.84;100.00;98663.75;5011483;28;20041;-63
2022/11/17 03:07:47;;;;;;;3.72;0.98;;;;;;;10.84;100.00;98679.47;5013957;28;20155;-63
2022/11/17 03:10:19;;;;;;;3.70;1.17;;;;;;;10.85;100.00;98667.16;5023002;28;20524;-62
2022/11/17 03:13:29;;;;;;;5.28;1.45;;;;;;;10.88;100.00;98667.59;5009482;28;20053;-63
2022/11/17 03:16:33;;;;;;;3.75;1.25;;;;;;;10.93;100.00;98653.84;4982536;28;20092;-63
2022/11/17 03:19:17;;;;;;;3.65;1.25;;;;;;;10.93;100.00;98645.97;5016375;28;20095;-64
2022/11/17 03:21:49;;;;;;;2.15;1.27;;;;;;;10.95;100.00;98641.34;5024295;28;20278;-64
2022/11/17 03:24:28;;;;;;;3.60;1.30;;;;;;;10.98;100.00;98645.41;5019720;28;20045;-64
2022/11/17 03:27:02;;;;;;;2.65;1.30;;;;;;;10.97;100.00;98639.31;5022306;28;20099;-64
2022/11/17 03:29:32;;;;;;;3.90;1.50;;;;;;;10.98;100.00;98638.31;5012867;28;20071;-64
2022/11/17 03:32:02;;;;;;;3.05;1.10;;;;;;;10.98;100.00;98642.78;5015700;28;20056;-64
2022/11/17 03:34:33;;;;;;;2.10;1.20;;;;;;;10.95;100.00;98638.72;5009163;28;20053;-64
2022/11/17 03:37:02;;;;;;;2.47;1.30;;;;;;;10.93;100.00;98647.81;5018074;28;20107;-64
2022/11/17 03:39:32;;;;;;;2.28;1.13;;;;;;;10.93;100.00;98640.75;5027821;28;20045;-64
2022/11/17 03:42:15;;;;;;;1.95;1.08;;;;;;;10.92;100.00;98623.41;5011399;28;20046;-64
2022/11/17 03:44:47;;;;;;;4.03;1.42;;;;;;;10.93;100.00;98622.38;5022424;28;20075;-64
2022/11/17 03:47:16;;;;;;;2.42;1.23;;;;;;;10.89;100.00;98594.94;5014668;28;20049;-64
2022/11/17 03:50:13;;;;;;;2.13;1.20;;;;;;;10.93;100.00;98564.66;5025607;28;20146;-64
2022/11/17 03:52:45;;;;;;;2.55;1.52;;;;;;;10.95;100.00;98561.84;5020591;28;20557;-64
2022/11/17 03:55:13;;;;;;;3.80;1.45;;;;;;;10.92;100.00;98578.81;5025827;28;20065;-64
2022/11/17 03:57:49;;;;;;;2.08;1.02;;;;;;;10.93;100.00;98580.41;5024034;28;20102;-64
2022/11/17 04:00:17;;;;;;;3.97;1.25;;;;;;;10.99;100.00;98582.22;5030952;28;20052;-64
2022/11/17 04:02:47;;;;;;;4.30;1.77;;;;;;;10.91;100.00;98579.81;5025807;28;20148;-64
2022/11/17 04:05:15;;;;;;;3.28;1.40;;;;;;;10.92;100.00;98562.25;5025747;28;20418;-65
2022/11/17 04:07:44;;;;;;;3.17;1.42;;;;;;;10.95;100.00;98561.84;5024508;28;20052;-64
2022/11/17 04:10:16;;;;;;;2.47;1.42;;;;;;;10.92;100.00;98573.56;5031427;28;20509;-64
2022/11/17 04:18:13;;;;;;;4.13;1.40;;;;;;;10.85;100.00;98562.25;5028844;28;20046;-64
2022/11/17 04:20:41;;;;;;;4.47;1.65;;;;;;;10.84;100.00;98571.94;5019779;28;20103;-65
2022/11/17 04:23:12;;;;;;;2.85;1.30;;;;;;;10.80;100.00;98562.88;5029812;28;20048;-64
2022/11/17 04:28:35;;;;;;;1.70;1.00;;;;;;;10.89;100.00;98566.88;5018946;28;20461;-64
2022/11/17 04:31:25;;;;;;;2.20;1.08;;;;;;;10.86;100.00;98564.69;5019860;28;20990;-64
2022/11/17 04:33:57;;;;;;;1.50;1.10;;;;;;;10.91;100.00;98561.44;5017026;28;20057;-64
2022/11/17 04:36:26;;;;;;;3.17;1.35;;;;;;;10.90;100.00;98554.59;5017414;28;20049;-64
2022/11/17 04:38:54;;;;;;;3.85;1.20;;;;;;;10.91;100.00;98547.53;5022509;28;20081;-64
2022/11/17 04:44:10;;;;;;;2.20;1.23;;;;;;;10.90;100.00;98541.50;5024868;28;20071;-64
2022/11/17 04:46:37;;;;;;;;;;;;;;;10.97;100.00;98538.84;5027186;28;20060;-63
2022/11/17 04:49:04;;;;;;;4.57;1.83;;;;;;;10.89;100.00;98539.88;5014386;28;19925;-63
2022/11/17 04:51:31;;;;;;;2.00;1.45;;;;;;;10.91;100.00;98529.97;5027013;28;20053;-63
2022/11/17 04:53:58;;;;;;;3.28;1.77;;;;;;;10.86;100.00;98527.97;5023206;28;20053;-63
2022/11/17 04:56:26;;;;;;;5.22;2.00;;;;;;;10.86;100.00;98522.72;5015765;28;20056;-64
2022/11/17 04:58:53;;;;;;;2.67;1.58;;;;;;;10.85;100.00;98528.16;5033374;28;20071;-63
2022/11/17 05:01:21;;;;;;;4.63;2.00;;;;;;;10.88;100.00;98512.84;5010812;28;20698;-63
2022/11/17 05:03:58;;;;;;;5.72;1.90;;;;;;;10.94;100.00;98513.00;5018311;28;20057;-64
2022/11/17 05:06:34;;;;;;;3.08;1.70;;;;;;;10.93;100.00;98508.78;5007247;28;20096;-63
2022/11/17 05:09:04;;;;;;;4.97;1.88;;;;;;;10.94;100.00;98499.91;5013830;28;20469;-63
2022/11/17 05:14:19;;;;;;;6.78;1.88;;;;;;;10.91;100.00;98503.75;5020835;28;20053;-64
2022/11/17 05:17:04;;;;;;;3.55;1.40;;;;;;;10.86;100.00;98507.00;5022627;28;20050;-62
2022/11/17 05:19:43;;;;;;;4.22;1.60;;;;;;;10.91;100.00;98498.50;5017012;28;20099;-63
2022/11/17 05:24:57;;;;;;;4.78;2.00;;;;;;;10.86;100.00;98493.88;5010153;28;20050;-63
2022/11/17 05:27:24;;;;;;;3.47;1.55;;;;;;;10.88;100.00;98504.97;5018474;28;20038;-63
2022/11/17 05:29:51;;;;;;;4.80;1.50;;;;;;;10.88;100.00;98498.94;5010755;28;20131;-63
2022/11/17 05:32:17;;;;;;;4.30;1.70;;;;;;;10.86;100.00;98507.00;5026554;28;20114;-62
2022/11/17 05:34:44;;;;;;;4.35;2.08;;;;;;;10.86;100.00;98511.44;5028141;28;20876;-61
2022/11/17 05:37:11;;;;;;;4.78;1.70;;;;;;;10.93;100.00;98509.59;5014159;28;20061;-63
2022/11/17 05:39:37;;;;;;;7.32;1.70;;;;;;;10.89;100.00;98511.81;5007347;28;20045;-62
2022/11/17 05:42:04;;;;;;;3.60;1.65;;;;;;;10.92;100.00;98499.28;5015540;28;20498;-61
2022/11/17 05:44:30;;;;;;;3.70;1.70;;;;;;;10.86;100.00;98487.84;5031247;28;20058;-62
2022/11/17 05:46:56;;;;;;;7.03;2.28;;;;;;;10.86;100.00;98483.38;5016767;28;20060;-62
2022/11/17 05:49:23;;;;;;;3.20;1.70;;;;;;;10.81;100.00;98474.53;5027488;28;20053;-62
2022/11/17 05:51:49;;;;;;;5.68;1.58;;;;;;;10.84;100.00;98480.16;5016161;28;20103;-62
2022/11/17 05:54:18;;;;;;;4.97;1.50;;;;;;;10.83;100.00;98470.66;5020561;28;20053;-62
2022/11/17 05:57:00;;;;;;;5.57;1.52;;;;;;;10.83;100.00;98477.75;5017913;28;20054;-62
2022/11/17 05:59:36;;;;;;;6.35;1.98;;;;;;;10.82;100.00;98476.13;5010873;28;20045;-61
2022/11/17 06:02:08;;;;;;;7.38;2.15;;;;;;;10.80;100.00;98478.13;5011701;28;20049;-62
2022/11/17 06:04:35;;;;;;;3.90;1.70;;;;;;;10.80;100.00;98478.97;5002674;28;20053;-62
2022/11/17 06:07:02;;;;;;;4.95;2.00;;;;;;;10.75;100.00;98470.91;5008584;28;20050;-62
2022/11/17 06:09:32;;;;;;;2.67;1.30;;;;;;;10.79;100.00;98487.84;5013734;28;20072;-63
2022/11/17 06:11:58;;;;;;;4.75;1.50;;;;;;;10.75;100.00;98491.88;5020955;28;20369;-63
2022/11/17 06:14:32;;;;;;;4.32;1.48;;;;;;;10.78;100.00;98483.59;5017654;28;20061;-63
2022/11/17 06:17:05;;;;;;;4.95;1.25;;;;;;;10.75;100.00;98488.44;5014861;28;20381;-63
2022/11/17 06:19:39;;;;;;;7.22;1.65;;;;;;;10.78;100.00;98483.59;5009980;28;20054;-63
2022/11/17 06:22:06;;;;;;;4.55;1.60;;;;;;;10.69;100.00;98500.56;5007830;28;20053;-63
2022/11/17 06:24:38;;;;;;;5.85;1.52;;;;;;;10.64;100.00;98493.31;5020795;28;20081;-62
2022/11/17 06:27:05;;;;;;;5.30;1.60;;;;;;;10.61;100.00;98508.63;5023961;28;20040;-63
2022/11/17 06:29:31;;;;;;;3.28;1.60;;;;;;;10.52;100.00;98513.25;5013611;28;20045;-64
2022/11/17 06:31:58;;;;;;;3.00;1.25;;;;;;;10.50;100.00;98507.41;5021468;28;20057;-63
2022/11/17 06:34:26;;;;;;;2.25;1.25;;;;;;;10.57;100.00;98504.81;4999686;28;20057;-63
2022/11/17 06:36:52;;;;;;;5.38;1.27;;;;;;;10.58;100.00;98504.59;5012092;28;20395;-62
2022/11/17 06:39:19;;;;;;;5.78;1.65;;;;;;;10.64;100.00;98509.03;5008334;28;20049;-63
2022/11/17 06:41:45;;;;;;;3.83;1.67;;;;;;;10.61;100.00;98509.44;5011057;28;20054;-63
2022/11/17 06:44:11;;;;;;;4.93;1.27;;;;;;;10.60;100.00;98507.00;5024981;28;20107;-63
2022/11/17 06:46:38;;;;;;;4.90;1.35;;;;;;;10.68;100.00;98505.00;5001302;28;20128;-63
2022/11/17 06:49:06;;;;;;;3.00;1.27;;;;;;;10.66;100.00;98509.66;5013772;28;20104;-64
2022/11/17 06:51:33;;;;;;;3.50;1.00;;;;;;;10.71;100.00;98508.22;5001066;28;20072;-63
2022/11/17 06:54:00;;;;;;;2.70;1.10;;;;;;;10.67;100.00;98513.06;5016098;28;20053;-64
2022/11/17 06:56:27;;;;;;;3.90;0.93;;;;;;;10.67;100.00;98508.63;5004578;28;20054;-64
2022/11/17 06:58:54;;;;;;;5.63;2.10;;;;;;;10.64;100.00;98514.28;5015358;28;20437;-64
2022/11/17 07:01:21;;;;;;;3.05;1.27;;;;;;;10.68;100.00;98515.50;5010415;28;20060;-64
2022/11/17 07:03:48;;;;;;;4.65;1.38;;;;;;;10.60;100.00;98514.88;5022126;28;20085;-64
2022/11/17 07:06:15;;;;;;;5.10;1.38;;;;;;;10.66;100.00;98524.56;5027385;28;20818;-64
2022/11/17 07:08:41;;;;;;;4.97;1.45;;;;;;;10.66;100.00;98522.75;5028581;28;20057;-63
2022/11/17 07:11:09;;;;;;;4.07;1.20;;;;;;;10.72;100.00;98533.44;5025486;28;20045;-64
2022/11/17 07:13:37;;;;;;;4.93;1.30;;;;;;;10.68;100.00;98538.25;5007274;28;20072;-64
2022/11/17 07:16:09;;;;;;;4.13;1.00;;;;;;;10.75;100.00;98540.91;5017194;28;20060;-64
2022/11/17 07:18:37;;;;;;;7.65;1.60;;;;;;;10.67;100.00;98540.09;5028547;28;20717;-64
2022/11/17 07:21:05;;;;;;;5.40;1.00;;;;;;;10.67;100.00;98532.22;5008506;28;21192;-64
2022/11/17 07:23:33;;;;;;;5.97;1.33;;;;;;;10.73;100.00;98545.53;5024600;28;20060;-64
2022/11/17 07:26:00;;;;;;;8.55;1.20;;;;;;;10.71;100.00;98534.44;5016389;28;20053;-64
2022/11/17 07:28:28;;;;;;;5.65;1.05;;;;;;;10.73;100.00;98542.91;5021493;28;20057;-64
2022/11/17 07:30:55;;;;;;;4.78;1.20;;;;;;;10.68;100.00;98548.75;5022922;28;20068;-64
2022/11/17 07:33:21;;;;;;;5.30;0.70;;;;;;;10.74;100.00;98550.59;5019618;28;20053;-64
2022/11/17 07:35:48;;;;;;;6.25;1.10;;;;;;;10.78;100.00;98556.22;5025612;28;20056;-63
2022/11/17 07:38:14;;;;;;;5.45;1.50;;;;;;;10.78;100.00;98558.81;5013813;28;20462;-64
2022/11/17 07:40:41;;;;;;;5.72;1.40;;;;;;;10.77;100.00;98562.47;5021292;28;20050;-64
2022/11/17 07:43:07;;;;;;;6.45;1.27;;;;;;;10.72;100.00;98557.81;5017420;28;20049;-64
2022/11/17 07:45:35;;;;;;;7.63;1.45;;;;;;;10.76;100.00;98571.34;5018174;28;20049;-63
2022/11/17 07:48:04;;;;;;;4.22;1.40;;;;;;;10.77;100.00;98568.53;5016006;28;20170;-64
2022/11/17 07:50:32;;;;;;;3.28;1.38;;;;;;;10.80;100.00;98580.41;5025066;28;20049;-64
2022/11/17 07:52:59;;;;;;;5.90;1.17;;;;;;;10.72;100.00;98570.13;5021225;28;20776;-64
2022/11/17 07:55:25;;;;;;;5.90;1.20;;;;;;;10.68;100.00;98590.69;5008251;28;20148;-64
2022/11/17 07:58:00;;;;;;;5.05;1.20;;;;;;;10.75;100.00;98575.00;5017575;28;20056;-64
2022/11/17 08:00:29;;;;;;;4.93;1.10;;;;;;;10.69;100.00;98581.84;5011045;28;20049;-64
2022/11/17 08:02:59;;;;;;;6.35;1.13;;;;;;;10.67;100.00;98579.41;5016950;28;20069;-64
2022/11/17 08:05:29;;;;;;;5.30;0.90;;;;;;;10.71;100.00;98586.88;5021748;28;20057;-65
2022/11/17 08:07:59;;;;;;;8.00;1.02;;;;;;;10.64;100.00;98587.69;5021199;28;20053;-64
2022/11/17 08:10:27;;;;;;;4.63;1.10;;;;;;;10.69;100.00;98598.38;5013676;28;20548;-64
2022/11/17 08:12:53;;;;;;;3.90;0.88;;;;;;;10.67;100.00;98591.72;5012453;28;20065;-64
2022/11/17 08:15:21;;;;;;;3.13;0.90;;;;;;;10.72;100.00;98599.78;5013790;28;20057;-64
2022/11/17 08:17:55;;;;;;;5.53;1.17;;;;;;;10.68;100.00;98602.03;5009235;28;20137;-64
2022/11/17 08:20:22;;;;;;;5.43;1.30;;;;;;;10.65;100.00;98604.22;5017125;28;20049;-64
2022/11/17 08:22:50;;;;;;;4.82;1.17;;;;;;;10.63;100.00;98612.28;5003848;28;20080;-64
2022/11/17 08:25:21;;;;;;;4.80;0.80;;;;;;;10.65;100.00;98605.03;5019438;28;20053;-64
2022/11/17 08:27:50;;;;;;;6.45;1.05;;;;;;;10.48;100.00;98606.41;5028022;28;20056;-64
2022/11/17 08:30:19;;;;;;;3.42;0.93;;;;;;;10.51;100.00;98613.91;5026390;28;20049;-64
2022/11/17 08:32:50;;;;;;;6.10;0.88;;;;;;;10.55;100.00;98606.44;5024589;28;20593;-64
2022/11/17 08:35:19;;;;;;;1.73;0.68;;;;;;;10.52;100.00;98618.13;5022043;28;20049;-67
2022/11/17 08:37:45;;;;;;;3.33;0.75;;;;;;;10.47;100.00;98638.91;5034838;28;20052;-67
2022/11/17 08:40:13;;;;;;;3.13;0.70;;;;;;;10.39;100.00;98613.69;5012852;28;20337;-67
2022/11/17 08:42:39;;;;;;;3.28;0.80;;;;;;;10.43;100.00;98614.88;5023521;28;20162;-67
2022/11/17 08:45:06;;;;;;;8.27;1.30;;;;;;;10.50;100.00;98620.13;5020878;28;20056;-67
2022/11/17 08:47:33;;;;;;;2.78;0.70;;;;;;;10.45;100.00;98625.97;5005900;28;20070;-67
2022/11/17 08:49:59;;;;;;;3.20;0.65;;;;;;;10.45;100.00;98625.97;5012316;28;20048;-67
2022/11/17 08:52:27;;;;;;;4.35;0.80;;;;;;;10.44;100.00;98636.66;4998501;28;20503;-66
2022/11/17 08:54:54;;;;;;;1.77;0.60;;;;;;;10.39;100.00;98631.19;5012271;28;20620;-67
2022/11/17 08:57:20;;;;;;;4.72;0.73;;;;;;;10.38;100.00;98638.25;5008030;28;20050;-67
2022/11/17 08:59:48;;;;;;;3.15;0.85;;;;;;;10.36;100.00;98636.84;5014173;28;20604;-67
2022/11/17 09:02:15;;;;;;;1.08;0.45;;;;;;;10.27;100.00;98638.78;5018942;28;20050;-68
2022/11/17 09:04:44;;;;;;;1.55;0.63;;;;;;;10.37;100.00;98639.28;5020073;28;20148;-67
2022/11/17 09:07:11;;;;;;;2.13;0.60;;;;;;;10.41;100.00;98643.13;5019147;28;20045;-67
2022/11/17 09:09:37;;;;;;;6.88;0.82;;;;;;;10.36;100.00;98629.78;5004572;28;20149;-67
2022/11/17 09:12:04;;;;;;;4.18;0.75;;;;;;;10.39;100.00;98641.69;5020902;28;20406;-67
2022/11/17 09:14:30;;;;;;;2.78;0.70;;;;;;;10.41;100.00;98648.34;5011643;28;20057;-67
2022/11/17 09:16:57;;;;;;;4.28;0.70;;;;;;;10.39;100.00;98642.50;5031309;28;20054;-67
2022/11/17 09:19:23;;;;;;;2.67;0.70;;;;;;;10.43;100.00;98650.78;5007616;28;20056;-67
2022/11/17 09:21:50;;;;;;;6.03;0.82;;;;;;;10.44;100.00;98647.94;5022866;28;20049;-67
2022/11/17 09:24:16;;;;;;;1.83;0.82;;;;;;;10.47;100.00;98657.25;5010194;28;20050;-67
2022/11/17 09:26:43;;;;;;;3.10;0.70;;;;;;;10.51;100.00;98655.03;5012861;28;20049;-67
2022/11/17 09:29:10;;;;;;;3.10;1.00;;;;;;;10.50;100.00;98662.06;5024233;28;20045;-67
2022/11/17 09:31:36;;;;;;;2.30;0.70;;;;;;;10.47;100.00;98662.47;5008690;28;20434;-67
2022/11/17 09:34:03;;;;;;;4.43;0.85;;;;;;;10.46;100.00;98664.28;5014509;28;20065;-67
2022/11/17 09:36:31;;;;;;;3.90;0.90;;;;;;;10.44;100.00;98663.66;5018911;28;20413;-67
2022/11/17 09:38:58;;;;;;;3.63;0.70;;;;;;;10.47;100.00;98672.97;5015990;28;20048;-67
2022/11/17 09:41:41;;;;;;;4.38;0.77;;;;;;;10.47;100.00;98673.78;5022369;28;20057;-67
2022/11/17 09:44:13;;;;;;;1.05;0.55;;;;;;;10.36;100.00;98671.72;5008882;28;20664;-67
2022/11/17 09:47:06;;;;;;;2.33;0.70;;;;;;;10.45;100.00;98680.22;5006158;28;20256;-67
2022/11/17 09:49:50;;;;;;;2.65;0.77;;;;;;;10.40;100.00;98677.38;5006483;28;20045;-67
2022/11/17 09:52:49;;;;;;;5.22;0.95;;;;;;;10.37;100.00;98685.63;5025249;28;20045;-67
2022/11/17 09:55:34;;;;;;;4.20;1.20;;;;;;;10.44;100.00;98689.88;5016381;28;20049;-67
2022/11/17 09:58:17;;;;;;;4.30;0.95;;;;;;;10.39;100.00;98687.06;5024348;28;20534;-67
2022/11/17 10:00:47;;;;;;;3.72;1.27;;;;;;;10.33;100.00;98687.84;5001668;28;20050;-67
2022/11/17 10:03:18;;;;;;;5.18;0.73;;;;;;;10.25;100.00;98693.22;5016489;28;20080;-67
2022/11/17 10:05:45;;;;;;;2.42;0.80;;;;;;;10.20;100.00;98704.28;5020229;28;20049;-67
2022/11/17 10:08:17;;;;;;;1.27;0.70;;;;;;;10.19;100.00;98696.63;5010028;28;20263;-66
2022/11/17 10:10:49;;;;;;;2.63;0.77;;;;;;;10.13;100.00;98715.75;5027807;28;20583;-67
2022/11/17 10:13:31;;;;;;;1.08;0.80;;;;;;;10.13;100.00;98710.50;4998920;28;20418;-67
2022/11/17 10:16:06;;;;;;;4.10;0.90;;;;;;;10.19;100.00;98709.72;5011225;28;20050;-67
2022/11/17 10:18:37;;;;;;;2.08;0.70;;;;;;;10.26;100.00;98724.47;5016683;28;20261;-67
2022/11/17 10:21:05;;;;;;;1.52;0.55;;;;;;;10.24;100.00;98718.63;5022747;28;20365;-66
2022/11/17 10:23:38;;;;;;;3.17;0.70;;;;;;;10.21;100.00;98715.56;5012217;28;20053;-66
2022/11/17 10:26:14;;;;;;;4.57;0.90;;;;;;;10.24;100.00;98720.44;5017528;28;20425;-67
2022/11/17 10:28:40;;;;;;;;;;;;;;;10.28;100.00;98716.41;5020428;28;20440;-67
2022/11/17 10:36:29;;;;;;;1.27;0.60;;;;;;;10.29;100.00;98726.72;5909197;23;20062;-67
2022/11/17 10:38:58;;;;;;;2.60;0.80;;;;;;;10.27;100.00;98727.88;4985492;23;20054;-67
2022/11/17 10:41:49;;;;;;;4.00;1.33;;;;;;;10.30;100.00;98727.53;4972257;28;20050;-67
2022/11/17 10:44:26;;;;;;;1.65;0.52;;;;;;;10.34;100.00;98726.13;4979132;28;20108;-67
2022/11/17 10:47:02;;;;;;;3.15;0.50;;;;;;;10.39;100.00;98720.31;4976970;28;20042;-67
2022/11/17 10:49:33;;;;;;;5.35;1.08;;;;;;;10.45;100.00;98733.44;4979330;28;20161;-67
2022/11/17 10:52:15;;;;;;;3.47;1.00;;;;;;;10.49;100.00;98734.66;4983065;28;20054;-67
2022/11/17 10:54:42;;;;;;;2.47;0.80;;;;;;;10.50;100.00;98727.59;4979543;28;20053;-67
2022/11/17 10:57:19;;;;;;;3.75;0.80;;;;;;;10.53;100.00;98727.22;4980628;28;20092;-68
2022/11/17 10:59:53;;;;;;;5.63;0.73;;;;;;;10.58;100.00;98726.63;4976545;28;20043;-68
2022/11/17 11:02:32;;;;;;;5.25;0.95;;;;;;;10.67;100.00;98731.47;4983972;28;20055;-67
2022/11/17 11:05:17;;;;;;;2.15;0.77;;;;;;;10.73;100.00;98742.19;4976890;28;20058;-68
2022/11/17 11:07:44;;;;;;;2.55;0.90;;;;;;;10.69;100.00;98733.91;4979907;28;20053;-68
2022/11/17 11:10:30;;;;;;;4.15;0.85;;;;;;;10.76;100.00;98733.91;4971327;28;20148;-68
2022/11/17 11:13:18;;;;;;;3.15;0.80;;;;;;;10.83;100.00;98745.25;4979349;28;20078;-68
2022/11/17 11:15:45;;;;;;;3.15;0.85;;;;;;;10.79;100.00;98741.41;4977909;28;20088;-67
2022/11/17 11:18:14;;;;;;;2.97;0.88;;;;;;;10.85;100.00;98759.75;4984306;28;20481;-68
2022/11/17 11:21:19;;;;;;;2.17;0.77;;;;;;;10.85;100.00;98751.09;4977645;28;20056;-68
2022/11/17 11:24:03;;;;;;;5.90;1.20;;;;;;;10.81;100.00;98755.13;4952703;28;20055;-67
2022/11/17 11:26:38;;;;;;;3.65;1.00;;;;;;;10.83;100.00;98748.66;4977126;28;20113;-68
2022/11/17 11:29:26;;;;;;;5.15;1.05;;;;;;;10.89;100.00;98757.56;4982978;28;20065;-68
2022/11/17 11:36:09;;;;;;;3.10;0.65;;;;;;;10.86;100.00;98756.16;4992672;28;20119;-68
2022/11/17 11:38:54;;;;;;;3.25;0.90;;;;;;;10.84;100.00;98752.91;4970509;28;20054;-67
2022/11/17 11:41:42;;;;;;;5.22;0.88;;;;;;;10.93;100.00;98763.22;4980898;28;20406;-68
2022/11/17 11:44:20;;;;;;;3.22;0.70;;;;;;;10.94;100.00;98763.03;4976488;28;20061;-68
2022/11/17 11:47:14;;;;;;;3.28;0.77;;;;;;;10.99;100.00;98767.66;4975889;28;20437;-68
2022/11/17 11:49:50;;;;;;;4.55;0.93;;;;;;;10.95;100.00;98782.19;4971899;28;20054;-68
2022/11/17 11:52:25;;;;;;;1.98;0.52;;;;;;;10.97;100.00;98777.56;4978159;28;20125;-68
2022/11/17 11:54:59;;;;;;;2.28;0.65;;;;;;;10.93;100.00;98779.75;4979240;28;20051;-68
2022/11/17 11:57:32;;;;;;;2.78;1.00;;;;;;;10.91;100.00;98778.34;4980398;28;20133;-68
2022/11/17 12:00:04;;;;;;;3.42;1.08;;;;;;;10.94;100.00;98778.78;4976211;28;20505;-68
2022/11/17 12:02:48;;;;;;;5.00;1.40;;;;;;;10.90;100.00;98774.94;4974461;28;20050;-68
2022/11/17 12:05:25;;;;;;;4.25;1.20;;;;;;;10.89;100.00;98779.34;4975515;28;20101;-68
2022/11/17 12:08:05;;;;;;;2.38;0.90;;;;;;;10.92;100.00;98778.16;4976937;28;20058;-68
2022/11/17 12:10:55;;;;;;;4.60;1.02;;;;;;;10.95;100.00;98787.44;4983866;28;20351;-68
2022/11/17 12:13:23;;;;;;;3.42;0.90;;;;;;;10.97;100.00;98788.03;4977223;28;20054;-68
2022/11/17 12:15:50;;;;;;;3.28;1.00;;;;;;;10.91;100.00;98786.22;4982903;28;20054;-69
2022/11/17 12:18:16;;;;;;;2.35;0.80;;;;;;;10.89;100.00;98789.03;4974553;28;20735;-68
2022/11/17 12:21:04;;;;;;;3.22;0.90;;;;;;;10.95;100.00;98798.72;4977262;28;20046;-68
2022/11/17 12:24:09;;;;;;;4.03;0.98;;;;;;;10.99;100.00;98796.53;4976238;28;20054;-68
2022/11/17 12:26:37;;;;;;;1.55;0.73;;;;;;;10.95;100.00;98793.47;4976819;28;20046;-67